Terminal Aerodrome Forecast
Issued by NWS

Home | Current Version | Previous Version | Text Only | Print | Product List | Glossary On
Versions: 1 2 3 4 5 6 7 8 9 10 11 12 13 14 15 16 17 18 19 20 21 22 23 24 25 26 27 28 29 30 31 32 33 34 35 36
000
FTUS46 KPQR 191720
TAFONP
TAF
KONP 191720Z 1918/2018 09003KT P6SM FEW007
     FM192100 35010KT P6SM SCT011
     FM200000 01008KT P6SM SKC
     FM200800 VRB03KT 2SM BR BKN002
     FM201100 08003KT 1/2SM FG OVC001=

USA.gov is the U.S. government's official web portal to all federal, state and local government web resources and services.